Time;durP1;ratioP1;P1;durP2;ratioP2;P2;SDS_P1;SDS_P2;PMS_P1;PMS_P2;Temp;Humidity;BMP_temperature;BMP_pressure;BME280_temperature;BME280_humidity;BME280_pressure;Samples;Min_cycle;Max_cycle;Signal;HPM_P1;HPM_P2
2022/02/12 00:00:14;;;;;;;;;20.50;18.75;;;;;9.39;50.11;102698.50;2089388;28;45905;-59
2022/02/12 00:01:15;;;;;;;;;17.20;16.60;;;;;9.39;49.96;102696.75;2095527;28;47854;-60
2022/02/12 00:02:15;;;;;;;;;17.00;15.75;;;;;9.39;49.91;102699.41;2088978;28;48091;-61
2022/02/12 00:03:16;;;;;;;;;16.25;16.25;;;;;9.38;50.03;102699.38;2085548;28;47538;-60
2022/02/12 00:04:16;;;;;;;;;16.25;15.75;;;;;9.38;49.85;102704.69;2090793;28;45753;-61
2022/02/12 00:05:17;;;;;;;;;20.00;20.00;;;;;9.38;49.81;102699.38;2090530;28;47984;-60
2022/02/12 00:06:18;;;;;;;;;19.20;17.60;;;;;9.38;49.77;102705.56;2095109;28;47917;-59
2022/02/12 00:07:18;;;;;;;;;21.25;20.25;;;;;9.38;50.16;102696.72;2070653;28;47976;-59
2022/02/12 00:08:19;;;;;;;;;21.75;20.00;;;;;9.36;49.76;102690.50;2069102;28;47899;-60
2022/02/12 00:09:19;;;;;;;;;19.50;19.50;;;;;9.35;49.90;102694.03;2080406;28;47115;-61
2022/02/12 00:10:21;;;;;;;;;16.25;16.25;;;;;9.35;49.72;102696.69;2082900;28;48260;-58
2022/02/12 00:11:22;;;;;;;;;23.60;19.40;;;;;9.35;49.78;102696.69;2085603;28;46222;-58
2022/02/12 00:12:22;;;;;;;;;21.75;21.75;;;;;9.34;49.88;102692.25;2078991;28;47861;-57
2022/02/12 00:13:23;;;;;;;;;18.25;17.75;;;;;9.34;49.59;102692.25;2077081;28;47818;-58
2022/02/12 00:14:24;;;;;;;;;23.20;19.20;;;;;9.34;49.70;102693.16;2094631;28;47418;-59
2022/02/12 00:15:25;;;;;;;;;18.50;18.00;;;;;9.33;49.95;102691.38;2096769;28;47833;-60
2022/02/12 00:16:25;;;;;;;;;17.25;17.25;;;;;9.33;49.83;102687.84;2091670;28;47336;-60
2022/02/12 00:17:25;;;;;;;;;16.75;15.00;;;;;9.33;49.77;102690.47;2088042;28;47197;-57
2022/02/12 00:18:26;;;;;;;;;21.50;20.50;;;;;9.31;49.65;102682.50;2086782;28;48071;-61
2022/02/12 00:19:26;;;;;;;;;20.75;19.50;;;;;9.31;49.97;102678.97;2091416;28;47892;-60
2022/02/12 00:20:27;;;;;;;;;17.25;16.75;;;;;9.30;49.82;102683.38;2088285;28;47693;-61
2022/02/12 00:21:27;;;;;;;;;23.00;21.00;;;;;9.31;49.95;102678.97;2087182;28;47821;-61
2022/02/12 00:22:27;;;;;;;;;22.00;19.00;;;;;9.30;49.89;102686.03;2092036;28;48188;-61
2022/02/12 00:23:28;;;;;;;;;21.50;20.00;;;;;9.29;50.01;102673.66;2084591;28;47742;-59
2022/02/12 00:24:28;;;;;;;;;20.00;20.00;;;;;9.29;49.91;102680.72;2082143;28;47501;-60
2022/02/12 00:25:29;;;;;;;;;18.75;17.50;;;;;9.28;49.93;102676.28;2087530;28;47358;-59
2022/02/12 00:26:29;;;;;;;;;19.00;16.75;;;;;9.27;50.18;102678.00;2083486;28;48228;-57
2022/02/12 00:27:30;;;;;;;;;20.50;18.50;;;;;9.27;50.12;102674.47;2081902;28;47383;-60
2022/02/12 00:28:30;;;;;;;;;19.50;19.50;;;;;9.28;50.05;102676.28;2095960;28;47712;-59
2022/02/12 00:29:31;;;;;;;;;19.00;17.00;;;;;9.27;50.13;102679.78;2096819;28;47958;-61
2022/02/12 00:30:31;;;;;;;;;18.25;18.00;;;;;9.26;50.16;102678.00;2096419;28;47119;-60
2022/02/12 00:31:31;;;;;;;;;20.50;17.25;;;;;9.25;50.08;102681.50;2088903;28;47647;-59
2022/02/12 00:32:32;;;;;;;;;18.00;17.50;;;;;9.24;50.24;102685.94;2084698;28;47336;-61
2022/02/12 00:33:32;;;;;;;;;20.00;17.50;;;;;9.22;50.14;102682.38;2069918;28;47079;-60
2022/02/12 00:34:33;;;;;;;;;23.75;21.50;;;;;9.23;50.16;102677.97;2070439;28;47489;-61
2022/02/12 00:35:34;;;;;;;;;23.60;22.00;;;;;9.23;50.13;102683.25;2087857;28;47273;-58
2022/02/12 00:36:36;;;;;;;;;21.75;20.00;;;;;9.23;50.22;102677.97;2088658;28;47806;-59
2022/02/12 00:37:37;;;;;;;;;20.00;18.40;;;;;9.23;50.36;102675.31;2086598;28;47746;-59
2022/02/12 00:38:38;;;;;;;;;22.50;21.00;;;;;9.22;50.19;102673.53;2088450;28;47902;-59
2022/02/12 00:39:41;;;;;;;;;20.80;19.00;;;;;9.19;50.20;102676.13;2088257;28;47662;-57
2022/02/12 00:40:41;;;;;;;;;19.40;19.40;;;;;9.18;50.28;102669.06;2083924;28;47254;-57
2022/02/12 00:41:42;;;;;;;;;24.00;22.75;;;;;9.17;50.48;102665.53;2080266;28;47570;-59
2022/02/12 00:42:42;;;;;;;;;23.00;19.75;;;;;9.16;50.41;102669.03;2079895;28;46272;-57
2022/02/12 00:43:43;;;;;;;;;23.25;22.50;;;;;9.16;50.22;102669.03;2080070;28;47104;-59
2022/02/12 00:44:43;;;;;;;;;26.75;21.50;;;;;9.14;50.26;102669.00;2080109;28;47684;-59
2022/02/12 00:45:46;;;;;;;;;23.75;22.25;;;;;9.14;50.36;102668.09;2079870;28;47862;-58
2022/02/12 00:46:47;;;;;;;;;18.80;18.80;;;;;9.13;50.44;102666.31;2080104;28;47512;-58
2022/02/12 00:47:47;;;;;;;;;19.50;19.50;;;;;9.15;50.46;102667.25;2080193;28;47886;-61
2022/02/12 00:48:47;;;;;;;;;19.25;19.25;;;;;9.12;50.42;102665.44;2081052;28;48470;-60
2022/02/12 00:49:48;;;;;;;;;22.75;19.25;;;;;9.11;50.35;102668.94;2088340;28;47907;-62
2022/02/12 00:50:48;;;;;;;;;21.00;20.25;;;;;9.10;50.30;102671.59;2081500;28;47684;-61
2022/02/12 00:51:49;;;;;;;;;20.00;18.00;;;;;9.10;50.58;102666.28;2088167;28;47422;-59
2022/02/12 00:52:50;;;;;;;;;21.40;20.20;;;;;9.09;50.34;102668.03;2088342;28;46551;-60
2022/02/12 00:53:50;;;;;;;;;18.25;18.25;;;;;9.09;50.38;102668.03;2088057;28;47459;-59
2022/02/12 00:54:51;;;;;;;;;17.50;16.75;;;;;9.08;50.44;102662.72;2088327;28;47758;-58
2022/02/12 00:55:52;;;;;;;;;17.25;17.25;;;;;9.08;50.46;102670.66;2087922;28;47580;-59
2022/02/12 00:56:52;;;;;;;;;16.50;16.00;;;;;9.08;50.51;102668.03;2078656;28;47419;-60
2022/02/12 00:57:52;;;;;;;;;23.25;20.75;;;;;9.09;50.60;102673.34;2078439;28;47271;-60
2022/02/12 00:58:53;;;;;;;;;23.50;20.25;;;;;9.08;50.31;102670.66;2088230;28;47447;-59
2022/02/12 00:59:53;;;;;;;;;18.75;18.75;;;;;9.07;50.58;102667.13;2088146;28;47094;-60
2022/02/12 01:00:54;;;;;;;;;18.00;16.75;;;;;9.08;50.36;102665.38;2079303;28;47343;-60
2022/02/12 01:01:54;;;;;;;;;18.00;18.00;;;;;9.07;50.35;102661.84;2079448;28;47807;-59
2022/02/12 01:02:54;;;;;;;;;21.50;21.50;;;;;9.05;50.62;102658.28;2086878;28;47808;-60
2022/02/12 01:03:55;;;;;;;;;21.00;20.00;;;;;9.05;50.47;102658.28;2079662;28;47360;-61
2022/02/12 01:04:55;;;;;;;;;17.25;17.25;;;;;9.05;50.52;102652.97;2082067;28;47336;-58
2022/02/12 01:05:57;;;;;;;;;21.75;20.50;;;;;9.05;50.52;102652.97;2088210;28;47418;-59
2022/02/12 01:06:58;;;;;;;;;21.20;21.20;;;;;9.05;50.48;102652.09;2079485;28;47950;-59
2022/02/12 01:07:58;;;;;;;;;21.50;19.75;;;;;9.06;50.33;102652.09;2070458;28;47589;-60
2022/02/12 01:09:00;;;;;;;;;18.00;17.00;;;;;9.06;50.54;102653.88;2078676;28;47776;-58
2022/02/12 01:10:00;;;;;;;;;21.80;20.40;;;;;9.05;50.62;102647.69;2074119;28;46486;-57
2022/02/12 01:11:03;;;;;;;;;22.25;21.00;;;;;9.05;50.62;102644.16;2078029;28;45633;-58
2022/02/12 01:12:05;;;;;;;;;20.00;20.00;;;;;9.04;50.63;102651.19;2074880;28;48086;-58
2022/02/12 01:13:05;;;;;;;;;19.60;19.60;;;;;9.03;50.46;102644.13;2077682;28;47559;-58
2022/02/12 01:14:06;;;;;;;;;20.75;20.25;;;;;9.03;50.45;102644.13;2079729;28;47870;-59
2022/02/12 01:15:07;;;;;;;;;19.00;19.00;;;;;9.03;50.60;102648.53;2080080;28;47888;-60
2022/02/12 01:16:08;;;;;;;;;22.80;19.80;;;;;9.03;50.62;102640.59;2079456;28;47824;-60
2022/02/12 01:17:10;;;;;;;;;21.75;21.75;;;;;9.03;50.42;102640.59;2079940;28;47600;-58
2022/02/12 01:18:11;;;;;;;;;22.20;21.20;;;;;9.02;50.34;102637.06;2079724;28;46525;-59
2022/02/12 01:19:11;;;;;;;;;27.20;23.40;;;;;9.02;50.56;102636.13;2077007;28;47022;-59
2022/02/12 01:20:12;;;;;;;;;24.00;24.00;;;;;9.01;50.53;102637.00;2076025;28;47341;-59
2022/02/12 01:21:12;;;;;;;;;22.25;21.00;;;;;9.01;50.48;102635.25;2076370;28;46968;-57
2022/02/12 01:22:13;;;;;;;;;20.50;19.00;;;;;9.00;50.61;102630.81;2077263;28;47857;-59
2022/02/12 01:23:13;;;;;;;;;21.00;19.75;;;;;9.01;50.37;102631.69;2079942;28;47905;-59
2022/02/12 01:24:14;;;;;;;;;25.75;23.50;;;;;8.99;50.56;102634.31;2073235;28;48618;-60
2022/02/12 01:25:15;;;;;;;;;21.50;21.50;;;;;8.98;50.49;102639.59;2076051;28;47795;-61
2022/02/12 01:26:16;;;;;;;;;23.80;20.60;;;;;8.97;50.34;102625.47;2079670;28;48310;-60
2022/02/12 01:27:16;;;;;;;;;23.75;22.50;;;;;8.97;50.39;102629.88;2074034;28;47577;-59
2022/02/12 01:28:18;;;;;;;;;19.25;19.00;;;;;8.95;50.52;102635.16;2070821;28;47241;-61
2022/02/12 01:29:18;;;;;;;;;21.20;21.20;;;;;8.96;50.34;102633.41;2069547;28;47828;-60
2022/02/12 01:30:19;;;;;;;;;24.75;20.50;;;;;8.96;50.59;102622.81;2075862;28;47902;-59
2022/02/12 01:31:21;;;;;;;;;20.00;19.75;;;;;8.95;50.48;102621.91;2071447;28;47800;-61
2022/02/12 01:32:22;;;;;;;;;21.00;20.40;;;;;8.92;50.47;102619.22;2073506;28;47701;-58
2022/02/12 01:33:22;;;;;;;;;20.00;20.00;;;;;8.90;50.39;102613.03;2077267;28;48000;-57
2022/02/12 01:34:23;;;;;;;;;20.50;19.25;;;;;8.90;50.59;102612.13;2085545;28;47573;-61
2022/02/12 01:35:24;;;;;;;;;21.50;21.50;;;;;8.89;50.54;102611.22;2080871;28;47112;-61
2022/02/12 01:36:25;;;;;;;;;21.60;17.80;;;;;8.91;50.43;102611.28;2071108;28;48397;-60
2022/02/12 01:37:26;;;;;;;;;25.20;21.80;;;;;8.91;50.54;102614.81;2073675;28;47863;-61
2022/02/12 01:38:28;;;;;;;;;15.75;15.00;;;;;8.92;50.43;102613.94;2072716;28;47998;-59
2022/02/12 01:39:28;;;;;;;;;22.20;22.00;;;;;8.92;50.47;102619.22;2077072;28;47860;-58
2022/02/12 01:40:29;;;;;;;;;21.25;20.75;;;;;8.93;50.60;102615.72;2079539;28;47615;-60
2022/02/12 01:41:30;;;;;;;;;19.00;19.00;;;;;8.94;50.84;102614.84;2077510;28;47461;-59
2022/02/12 01:42:30;;;;;;;;;20.25;19.75;;;;;8.94;50.50;102613.97;2079763;28;47086;-60
2022/02/12 01:43:32;;;;;;;;;17.25;17.25;;;;;8.94;50.57;102613.97;2077779;28;47607;-61
2022/02/12 01:44:35;;;;;;;;;16.40;16.40;;;;;8.95;50.68;102615.75;2079497;28;47902;-59
2022/02/12 01:45:36;;;;;;;;;20.20;20.20;;;;;8.94;50.41;102609.56;2077164;28;47918;-59
2022/02/12 01:46:37;;;;;;;;;19.75;19.50;;;;;8.93;50.24;102612.19;2079496;28;46832;-58
2022/02/12 01:47:38;;;;;;;;;20.00;19.80;;;;;8.94;50.40;102611.31;2077062;28;48329;-58
2022/02/12 01:48:42;;;;;;;;;19.50;19.50;;;;;8.95;50.33;102607.78;2079718;28;48193;-61
2022/02/12 01:49:43;;;;;;;;;20.00;16.20;;;;;8.91;50.50;102609.50;2077759;28;47664;-61
2022/02/12 01:50:50;;;;;;;;;21.00;20.00;;;;;8.91;50.36;102608.63;2079847;28;47631;-58
2022/02/12 01:51:52;;;;;;;;;20.00;19.80;;;;;8.90;50.45;102610.38;2079382;28;48061;-63
2022/02/12 01:52:52;;;;;;;;;23.20;18.60;;;;;8.90;50.60;102615.69;2079487;28;48356;-59
2022/02/12 01:53:54;;;;;;;;;21.00;20.25;;;;;8.90;50.37;102613.03;2079406;28;47816;-60
2022/02/12 01:54:55;;;;;;;;;20.00;19.00;;;;;8.90;50.26;102605.09;2079685;28;47566;-62
2022/02/12 01:55:55;;;;;;;;;18.40;18.40;;;;;8.90;50.58;102610.38;2061685;28;48071;-58
2022/02/12 01:56:58;;;;;;;;;22.25;20.00;;;;;8.90;50.94;102606.84;2070273;28;47425;-58
2022/02/12 01:57:59;;;;;;;;;18.40;18.40;;;;;8.91;50.18;102600.69;2079372;28;47976;-60
2022/02/12 01:58:59;;;;;;;;;20.00;20.00;;;;;8.91;50.38;102603.31;2079829;28;47634;-59
2022/02/12 02:00:00;;;;;;;;;15.00;15.00;;;;;8.89;50.53;102600.63;2082002;28;47408;-59
2022/02/12 02:01:00;;;;;;;;;19.00;18.50;;;;;8.89;50.36;102600.63;2082452;28;47793;-58
2022/02/12 02:02:02;;;;;;;;;24.00;20.00;;;;;8.90;50.21;102601.56;2079557;28;47606;-57
2022/02/12 02:03:03;;;;;;;;;11.40;10.00;;;;;8.89;50.35;102605.03;2076015;28;47714;-60
2022/02/12 02:04:04;;;;;;;;;22.00;18.25;;;;;8.88;50.27;102595.31;2079319;28;47084;-60
2022/02/12 02:05:09;;;;;;;;;19.60;16.80;;;;;8.88;50.57;102590.00;2079614;28;48203;-60
2022/02/12 02:06:10;;;;;;;;;16.40;16.40;;;;;8.88;50.37;102590.00;2078939;28;45960;-60
2022/02/12 02:07:11;;;;;;;;;22.00;19.80;;;;;8.87;50.19;102586.47;2079446;28;47594;-57
2022/02/12 02:08:12;;;;;;;;;13.75;12.25;;;;;8.88;50.48;102579.44;2079420;28;47756;-58
2022/02/12 02:09:13;;;;;;;;;22.00;20.50;;;;;8.89;50.28;102581.19;2079421;28;48232;-59
2022/02/12 02:10:14;;;;;;;;;19.80;17.40;;;;;8.89;50.23;102578.56;2079634;28;48361;-60
2022/02/12 02:11:17;;;;;;;;;17.60;17.20;;;;;8.89;50.22;102576.78;2079630;28;47850;-59
2022/02/12 02:12:18;;;;;;;;;18.60;18.60;;;;;8.90;50.36;102573.31;2079618;28;47824;-58
2022/02/12 02:13:23;;;;;;;;;17.50;16.25;;;;;8.88;50.35;102569.72;2086918;28;47645;-60
2022/02/12 02:14:34;;;;;;;;;15.60;15.60;;;;;8.88;50.35;102567.06;2082285;28;48048;-59
2022/02/12 02:15:35;;;;;;;;;17.40;15.80;;;;;8.88;50.21;102566.19;2079553;28;48636;-61
2022/02/12 02:16:35;;;;;;;;;19.00;19.00;;;;;8.88;50.23;102571.47;2070665;28;47124;-60
2022/02/12 02:17:36;;;;;;;;;16.75;15.25;;;;;8.87;50.00;102565.31;2070903;28;47757;-59
2022/02/12 02:18:37;;;;;;;;;18.50;17.00;;;;;8.85;50.30;102559.97;2079185;28;47556;-58
2022/02/12 02:19:38;;;;;;;;;16.00;16.00;;;;;8.86;50.22;102555.56;2079664;28;47337;-60
2022/02/12 02:20:38;;;;;;;;;14.20;14.20;;;;;8.85;50.39;102554.69;2079286;28;48091;-61
2022/02/12 02:21:40;;;;;;;;;17.25;15.50;;;;;8.85;50.20;102562.63;2079446;28;47222;-59
2022/02/12 02:22:48;;;;;;;;;18.40;16.60;;;;;8.84;50.24;102557.31;2079401;28;47351;-61
2022/02/12 02:23:50;;;;;;;;;18.60;17.00;;;;;8.84;50.08;102552.91;2079199;28;48121;-58
2022/02/12 02:24:50;;;;;;;;;17.20;15.80;;;;;8.84;50.22;102552.91;2078999;28;47835;-58
2022/02/12 02:25:50;;;;;;;;;20.50;17.00;;;;;8.84;49.99;102547.63;2070646;28;47886;-61
2022/02/12 02:27:01;;;;;;;;;11.50;11.50;;;;;8.85;50.23;102551.16;2068793;28;48177;-61
2022/02/12 02:28:02;;;;;;;;;19.00;16.40;;;;;8.84;50.41;102552.91;2062655;28;47233;-60
2022/02/12 02:29:02;;;;;;;;;16.50;14.75;;;;;8.84;50.37;102544.09;2068152;28;47320;-59
2022/02/12 02:30:04;;;;;;;;;17.25;15.50;;;;;8.84;50.13;102544.97;2079231;28;48645;-59
2022/02/12 02:31:04;;;;;;;;;16.40;16.40;;;;;8.83;50.38;102542.31;2079440;28;48387;-58
2022/02/12 02:32:05;;;;;;;;;21.00;20.25;;;;;8.84;50.11;102544.97;2078644;28;47642;-59
2022/02/12 02:33:06;;;;;;;;;15.80;15.60;;;;;8.83;50.24;102542.31;2078640;28;46625;-60
2022/02/12 02:34:11;;;;;;;;;20.50;20.00;;;;;8.83;50.17;102545.84;2082964;28;47849;-60
2022/02/12 02:35:15;;;;;;;;;15.20;13.80;;;;;8.83;49.59;102542.31;2083813;28;47731;-60
2022/02/12 02:36:16;;;;;;;;;13.60;13.60;;;;;8.81;50.18;102547.59;2084621;28;48633;-58
2022/02/12 02:37:17;;;;;;;;;18.00;15.50;;;;;8.80;50.08;102537.84;2082805;28;47148;-59
2022/02/12 02:38:18;;;;;;;;;16.80;15.80;;;;;8.79;50.16;102537.84;2076757;28;47612;-60
2022/02/12 02:39:18;;;;;;;;;17.25;16.00;;;;;8.77;50.21;102534.28;2076473;28;47295;-61
2022/02/12 02:40:21;;;;;;;;;14.50;13.50;;;;;8.77;50.29;102531.63;2084695;28;47521;-60
2022/02/12 02:41:21;;;;;;;;;14.60;13.60;;;;;8.75;50.15;102534.25;2086375;28;47549;-62
2022/02/12 02:42:21;;;;;;;;;14.25;14.25;;;;;8.76;50.40;102532.47;2085355;28;47423;-62
2022/02/12 02:43:22;;;;;;;;;18.50;16.25;;;;;8.74;49.98;102532.47;2087433;28;47803;-60
2022/02/12 02:44:23;;;;;;;;;13.00;13.00;;;;;8.75;50.23;102530.69;2087647;28;47279;-61
2022/02/12 02:45:23;;;;;;;;;16.50;16.50;;;;;8.75;50.29;102536.00;2087386;28;47793;-59
2022/02/12 02:46:24;;;;;;;;;15.25;14.25;;;;;8.74;49.79;102529.81;2084103;28;47707;-60
2022/02/12 02:47:33;;;;;;;;;15.00;13.50;;;;;8.75;50.17;102525.41;2078767;28;47996;-60
2022/02/12 02:48:33;;;;;;;;;15.00;14.20;;;;;8.75;50.38;102526.28;2078120;28;47925;-59
2022/02/12 02:49:34;;;;;;;;;16.00;16.00;;;;;8.74;50.22;102516.56;2078748;28;47374;-61
2022/02/12 02:56:00;;;;;;;;;14.60;14.00;;;;;8.72;50.43;102504.19;2086136;28;47535;-62
2022/02/12 02:57:01;;;;;;;;;19.00;17.60;;;;;8.72;50.41;102509.50;2079786;28;48296;-60
2022/02/12 02:58:01;;;;;;;;;15.00;15.00;;;;;8.71;50.31;102502.41;2079355;28;47686;-60
2022/02/12 02:59:01;;;;;;;;;15.50;14.75;;;;;8.72;50.19;102513.03;2078614;28;47386;-59
2022/02/12 03:00:03;;;;;;;;;19.00;16.50;;;;;8.71;50.44;102508.59;2056858;28;45693;-61
2022/02/12 03:01:11;;;;;;;;;16.00;16.00;;;;;8.70;50.48;102508.59;2066073;28;48143;-58
2022/02/12 03:02:12;;;;;;;;;14.20;14.20;;;;;8.71;50.43;102510.34;2070164;28;48381;-60
2022/02/12 03:03:12;;;;;;;;;17.00;14.80;;;;;8.71;50.40;102507.72;2070251;28;47913;-60
2022/02/12 03:04:13;;;;;;;;;14.50;13.50;;;;;8.70;50.31;102506.81;2069762;28;47303;-59
2022/02/12 03:05:13;;;;;;;;;19.00;16.00;;;;;8.70;50.71;102504.19;2070107;28;47460;-58
2022/02/12 03:06:16;;;;;;;;;15.50;14.75;;;;;8.70;50.36;102500.63;2069998;28;47939;-60
2022/02/12 03:07:16;;;;;;;;;15.60;15.00;;;;;8.69;50.46;102504.16;2069949;28;46488;-60
2022/02/12 03:08:16;;;;;;;;;15.25;15.25;;;;;8.69;50.47;102505.03;2062142;28;47997;-58
2022/02/12 03:09:17;;;;;;;;;15.00;13.00;;;;;8.68;50.50;102497.97;2062567;28;48460;-59
2022/02/12 03:10:17;;;;;;;;;15.75;14.25;;;;;8.69;50.46;102499.75;2069964;28;47744;-60
2022/02/12 03:11:18;;;;;;;;;17.25;16.00;;;;;8.69;50.37;102499.75;2062872;28;46901;-58
2022/02/12 03:12:18;;;;;;;;;13.00;12.75;;;;;8.69;50.41;102496.22;2069387;28;47701;-59
2022/02/12 03:13:19;;;;;;;;;14.50;14.50;;;;;8.68;50.31;102492.69;2058969;28;48004;-58
2022/02/12 03:14:19;;;;;;;;;16.00;13.50;;;;;8.68;50.32;102492.69;2065226;28;47646;-60
2022/02/12 03:15:21;;;;;;;;;14.25;13.25;;;;;8.68;50.45;102481.22;2058982;28;47285;-60
2022/02/12 03:16:22;;;;;;;;;13.20;13.20;;;;;8.67;50.15;102480.31;2060635;28;48086;-59
2022/02/12 03:17:22;;;;;;;;;15.60;14.80;;;;;8.67;50.42;102482.97;2057858;28;47765;-57
2022/02/12 03:18:23;;;;;;;;;14.25;14.00;;;;;8.65;50.30;102479.41;2071401;28;47770;-62
2022/02/12 03:19:23;;;;;;;;;14.00;12.75;;;;;8.65;50.46;102475.88;2064735;28;47326;-60
2022/02/12 03:20:24;;;;;;;;;14.50;11.50;;;;;8.65;50.48;102476.78;2071313;28;47552;-59
2022/02/12 03:21:25;;;;;;;;;13.50;13.25;;;;;8.65;50.58;102473.22;2059110;28;47734;-57
2022/02/12 03:22:25;;;;;;;;;14.50;14.25;;;;;8.64;50.44;102475.00;2056169;28;47407;-59
2022/02/12 03:23:25;;;;;;;;;14.25;14.00;;;;;8.64;50.55;102475.00;2063232;28;47709;-57
2022/02/12 03:24:26;;;;;;;;;13.50;13.50;;;;;8.63;50.42;102467.88;2062682;28;47850;-60
2022/02/12 03:25:27;;;;;;;;;13.75;13.25;;;;;8.62;50.73;102474.06;2062954;28;47199;-58
2022/02/12 03:26:28;;;;;;;;;13.00;13.00;;;;;8.63;50.48;102464.34;2071602;28;47488;-58
2022/02/12 03:27:28;;;;;;;;;16.25;15.50;;;;;8.63;50.36;102467.00;2066899;28;47430;-61
2022/02/12 03:28:29;;;;;;;;;12.75;12.25;;;;;8.63;50.65;102467.88;2070760;28;48016;-59
2022/02/12 03:29:29;;;;;;;;;15.00;15.00;;;;;8.62;50.41;102471.41;2065475;28;48034;-60
2022/02/12 03:30:35;;;;;;;;;16.25;13.25;;;;;8.61;50.36;102458.16;2071398;28;47551;-61
2022/02/12 03:31:35;;;;;;;;;12.80;12.40;;;;;8.62;50.48;102467.88;2063685;28;47303;-58
2022/02/12 03:32:36;;;;;;;;;13.25;11.75;;;;;8.61;50.26;102463.44;2079798;28;47741;-61
2022/02/12 03:33:36;;;;;;;;;13.00;13.00;;;;;8.62;50.52;102465.22;2071043;28;47534;-59
2022/02/12 03:34:37;;;;;;;;;14.50;14.50;;;;;8.61;50.40;102466.09;2085592;28;47338;-60
2022/02/12 03:35:37;;;;;;;;;14.75;13.75;;;;;8.61;50.43;102460.81;2064521;28;48251;-60
2022/02/12 03:36:38;;;;;;;;;11.75;10.25;;;;;8.61;50.18;102463.44;2063073;28;47646;-59
2022/02/12 03:37:38;;;;;;;;;14.00;13.75;;;;;8.61;50.37;102461.69;2053728;28;47497;-59
2022/02/12 03:38:40;;;;;;;;;13.75;13.75;;;;;8.61;50.37;102466.09;2053149;28;48037;-58
2022/02/12 03:39:41;;;;;;;;;14.20;13.20;;;;;8.59;50.48;102463.44;2070231;28;47739;-61
2022/02/12 03:40:46;;;;;;;;;14.75;13.50;;;;;8.58;50.36;102464.28;2060102;28;47569;-57
2022/02/12 03:41:47;;;;;;;;;14.80;13.20;;;;;8.58;50.32;102452.81;2051144;28;48004;-58
2022/02/12 03:42:47;;;;;;;;;11.75;11.75;;;;;8.57;50.54;102456.34;2079990;28;47381;-57
2022/02/12 03:43:48;;;;;;;;;12.00;11.50;;;;;8.58;50.39;102458.13;2079296;28;47156;-60
2022/02/12 03:44:48;;;;;;;;;11.75;11.50;;;;;8.58;50.41;102452.81;2062748;28;47877;-60
2022/02/12 03:45:48;;;;;;;;;16.25;12.00;;;;;8.57;50.49;102454.59;2054876;28;49439;-60
2022/02/12 03:46:49;;;;;;;;;12.50;12.25;;;;;8.56;50.49;102450.16;2075264;28;47303;-58
2022/02/12 03:47:50;;;;;;;;;14.00;13.00;;;;;8.55;50.45;102451.91;2080940;28;47395;-59
2022/02/12 03:48:50;;;;;;;;;16.00;13.50;;;;;8.55;50.64;102453.69;2084043;28;47420;-60
2022/02/12 03:49:50;;;;;;;;;12.00;12.00;;;;;8.53;50.49;102451.00;2063189;28;47714;-60
2022/02/12 03:50:52;;;;;;;;;12.75;11.00;;;;;8.55;50.35;102451.03;2063671;28;47203;-60
2022/02/12 03:51:52;;;;;;;;;14.40;13.80;;;;;8.54;50.46;102451.91;2078220;28;47707;-61
2022/02/12 03:52:54;;;;;;;;;11.50;10.50;;;;;8.53;50.59;102443.06;2083403;28;47087;-60
2022/02/12 03:53:54;;;;;;;;;12.40;12.40;;;;;8.52;50.63;102451.00;2080033;28;47216;-61
2022/02/12 03:54:55;;;;;;;;;12.00;12.00;;;;;8.52;50.36;102440.41;2080201;28;47326;-58
2022/02/12 03:55:55;;;;;;;;;11.00;9.00;;;;;8.53;50.47;102436.91;2069614;28;47201;-59
2022/02/12 03:56:55;;;;;;;;;7.75;6.75;;;;;8.52;50.48;102443.06;2072693;28;47873;-59
2022/02/12 03:57:56;;;;;;;;;12.50;12.00;;;;;8.52;50.66;102438.66;2079753;28;47452;-62
2022/02/12 03:58:56;;;;;;;;;15.25;12.00;;;;;8.51;50.45;102435.97;2083839;28;47847;-61
2022/02/12 03:59:57;;;;;;;;;14.00;13.75;;;;;8.51;50.68;102441.25;2071876;28;47728;-60
2022/02/12 04:00:57;;;;;;;;;15.50;14.00;;;;;8.49;50.57;102432.41;2076668;28;47570;-59
2022/02/12 04:01:58;;;;;;;;;12.00;12.00;;;;;8.50;50.59;102431.53;2081091;28;47903;-59
2022/02/12 04:02:59;;;;;;;;;10.20;10.20;;;;;8.50;50.72;102426.25;2080132;28;48274;-60
2022/02/12 04:04:00;;;;;;;;;10.00;9.00;;;;;8.49;50.44;102424.47;2078055;28;47335;-61
2022/02/12 04:05:00;;;;;;;;;13.00;12.50;;;;;8.48;50.66;102426.22;2081739;28;47583;-58
2022/02/12 04:06:01;;;;;;;;;12.00;11.75;;;;;8.48;50.54;102422.69;2078003;28;47335;-58
2022/02/12 04:07:01;;;;;;;;;11.00;11.00;;;;;8.47;50.47;102423.56;2081162;28;47342;-60
2022/02/12 04:08:03;;;;;;;;;11.00;11.00;;;;;8.46;50.72;102422.66;2071928;28;47662;-59
2022/02/12 04:09:04;;;;;;;;;11.80;11.00;;;;;8.46;50.66;102414.72;2079534;28;48162;-60
2022/02/12 04:10:05;;;;;;;;;15.25;12.00;;;;;8.46;50.54;102425.31;2078263;28;48146;-59
2022/02/12 04:11:06;;;;;;;;;14.00;12.80;;;;;8.44;50.49;102420.88;2082024;28;47846;-59
2022/02/12 04:12:06;;;;;;;;;9.00;9.00;;;;;8.44;50.60;102424.41;2080365;28;47987;-60
2022/02/12 04:13:07;;;;;;;;;12.25;12.25;;;;;8.44;50.50;102424.41;2086211;28;47932;-59
2022/02/12 04:14:07;;;;;;;;;7.75;7.75;;;;;8.43;50.53;102419.09;2054539;28;48881;-59
2022/02/12 04:15:09;;;;;;;;;9.50;8.75;;;;;8.43;49.98;102419.09;2065244;28;47700;-60
2022/02/12 04:16:09;;;;;;;;;8.00;8.00;;;;;8.43;50.54;102425.28;2079929;28;47922;-57
2022/02/12 04:17:10;;;;;;;;;10.00;10.00;;;;;8.43;50.29;102421.75;2075701;28;47528;-60
2022/02/12 04:18:12;;;;;;;;;10.00;9.75;;;;;8.43;50.46;102417.34;2077074;28;48604;-57
2022/02/12 04:19:12;;;;;;;;;11.00;10.40;;;;;8.42;50.65;102415.56;2082246;28;47879;-59
2022/02/12 04:20:15;;;;;;;;;10.25;10.25;;;;;8.44;50.54;102424.41;2079149;28;47533;-59
2022/02/12 04:21:15;;;;;;;;;9.60;9.60;;;;;8.42;50.37;102420.88;2080213;28;47798;-59
2022/02/12 04:22:16;;;;;;;;;11.00;9.50;;;;;8.42;50.52;102414.69;2082933;28;47554;-61
2022/02/12 04:23:16;;;;;;;;;10.00;8.75;;;;;8.43;50.48;102413.81;2080469;28;47809;-60
2022/02/12 04:24:17;;;;;;;;;10.00;7.75;;;;;8.41;50.45;102408.50;2082847;28;47742;-60
2022/02/12 04:25:20;;;;;;;;;9.50;8.00;;;;;8.41;50.65;102408.50;2083497;28;47526;-59
2022/02/12 04:26:20;;;;;;;;;10.80;8.40;;;;;8.40;50.57;102406.72;2080540;28;48186;-59
2022/02/12 04:27:21;;;;;;;;;10.00;4.00;;;;;8.41;50.46;102407.63;2072561;28;48057;-60
2022/02/12 04:28:21;;;;;;;;;6.75;6.75;;;;;8.40;50.52;102408.50;2067166;28;48089;-61
2022/02/12 04:29:21;;;;;;;;;6.25;6.25;;;;;8.39;50.52;102404.97;2078712;28;47078;-61
2022/02/12 04:30:22;;;;;;;;;6.75;6.50;;;;;8.39;50.60;102404.06;2080875;28;48191;-63
2022/02/12 04:31:23;;;;;;;;;11.00;9.50;;;;;8.38;50.51;102405.78;2077724;28;48178;-59
2022/02/12 04:32:24;;;;;;;;;6.60;6.60;;;;;8.37;50.53;102400.47;2069560;28;47517;-60
2022/02/12 04:33:24;;;;;;;;;4.25;4.25;;;;;8.36;50.48;102396.94;2069685;28;48015;-60
2022/02/12 04:34:25;;;;;;;;;6.25;6.25;;;;;8.35;50.63;102394.28;2080279;28;47607;-60
2022/02/12 04:35:25;;;;;;;;;9.50;9.50;;;;;8.36;50.64;102398.72;2077963;28;47950;-57
2022/02/12 04:36:26;;;;;;;;;6.00;6.00;;;;;8.34;50.56;102393.41;2080345;28;47479;-59
2022/02/12 04:37:27;;;;;;;;;9.00;9.00;;;;;8.35;50.56;102396.94;2077991;28;47748;-58
2022/02/12 04:38:27;;;;;;;;;10.40;8.80;;;;;8.35;50.50;102391.63;2080470;28;47621;-59
2022/02/12 04:39:28;;;;;;;;;8.75;8.75;;;;;8.34;50.54;102393.41;2080042;28;47511;-58
2022/02/12 04:40:28;;;;;;;;;11.25;11.25;;;;;8.35;50.55;102396.94;2080232;28;48025;-60
2022/02/12 04:41:29;;;;;;;;;11.80;10.80;;;;;8.35;50.60;102394.28;2079702;28;47796;-60
2022/02/12 04:42:29;;;;;;;;;7.00;7.00;;;;;8.35;50.58;102389.88;2080220;28;47860;-59
2022/02/12 04:43:30;;;;;;;;;12.25;10.00;;;;;8.35;50.73;102395.19;2079952;28;47700;-60
2022/02/12 04:44:30;;;;;;;;;8.50;6.50;;;;;8.35;50.74;102392.53;2079857;28;47415;-60
2022/02/12 04:45:31;;;;;;;;;12.50;12.50;;;;;8.35;50.68;102389.88;2080068;28;47151;-61
2022/02/12 04:46:31;;;;;;;;;10.50;10.50;;;;;8.36;50.48;102393.41;2080277;28;47307;-58